EmailTwitter


Surface observations / United Kingdom / EGTE (03839)

Regions: Quebec | Canada | USA | Europe | France | UK | Elsewhere
Station
Display
Info & Location for EGTE (03839) | Help decoding METAR

Weather Conditions observed on 2019/03/19 at 08:20 UTC at EXETER AIRPORT, UK (EGTE)

Sky conditions: partly cloudy.

Temperature: 9.0 Celsius.

Dewpoint: 8.0 Celsius.

Relative Humidity: 93%

Winds: Variable at 4 km/h or 2 knots.

Mean Sea level Pressure: 102.70 kilopascals.

Horizontal visibility: 6.21 statute miles or 9.94 kilometers.

Height of the Ceiling: 549 metres ( 1800 feet ).

Coded METAR:

EGTE 190820Z VRB02KT 9999 FEW009 BKN018 09/08 Q1027=